createdAt,value
2019-01-27T00:00:11.437Z,6.48
2019-01-27T00:01:11.298Z,6.43
2019-01-27T00:02:11.325Z,6.53
2019-01-27T00:03:11.388Z,6.42
2019-01-27T00:04:11.288Z,6.53
2019-01-27T00:05:11.253Z,6.40
2019-01-27T00:06:11.482Z,6.50
2019-01-27T00:07:11.248Z,6.46
2019-01-27T00:08:13.533Z,6.40
2019-01-27T00:09:11.271Z,6.51
2019-01-27T00:10:11.204Z,6.35
2019-01-27T00:11:11.348Z,6.43
2019-01-27T00:12:11.228Z,6.51
2019-01-27T00:13:11.187Z,6.40
2019-01-27T00:14:11.248Z,6.54
2019-01-27T00:15:11.203Z,6.45
2019-01-27T00:16:11.159Z,6.48
2019-01-27T00:17:11.135Z,6.43
2019-01-27T00:18:11.130Z,6.53
2019-01-27T00:19:11.281Z,6.43
2019-01-27T00:20:11.213Z,6.55
2019-01-27T00:21:11.212Z,6.45
2019-01-27T00:22:11.073Z,6.46
2019-01-27T00:23:11.088Z,6.48
2019-01-27T00:24:11.108Z,6.48
2019-01-27T00:25:11.180Z,6.42
2019-01-27T00:26:11.087Z,6.50
2019-01-27T00:27:11.025Z,6.48
2019-01-27T00:28:11.010Z,6.46
2019-01-27T00:29:11.030Z,6.45
2019-01-27T00:30:11.122Z,6.53
2019-01-27T00:31:10.979Z,6.46
2019-01-27T00:32:10.972Z,6.45
2019-01-27T00:33:11.105Z,6.39
2019-01-27T00:34:11.001Z,6.43
2019-01-27T00:35:11.020Z,6.45
2019-01-27T00:36:10.970Z,6.48
2019-01-27T00:37:10.927Z,6.55
2019-01-27T00:38:10.978Z,6.60
2019-01-27T00:39:10.924Z,6.58
2019-01-27T00:40:10.926Z,6.57
2019-01-27T00:41:10.871Z,6.60
2019-01-27T00:42:10.866Z,6.55
2019-01-27T00:43:10.939Z,6.65
2019-01-27T00:44:11.161Z,6.57
2019-01-27T00:45:10.985Z,6.53
2019-01-27T00:46:10.815Z,6.60
2019-01-27T00:47:11.303Z,6.61
2019-01-27T00:48:10.803Z,6.51
2019-01-27T00:49:10.816Z,6.54
2019-01-27T00:50:10.813Z,6.54
2019-01-27T00:51:10.812Z,6.57
2019-01-27T00:52:10.751Z,6.57
2019-01-27T00:53:10.792Z,6.55
2019-01-27T00:54:10.735Z,6.60
2019-01-27T00:55:10.722Z,6.55
2019-01-27T00:56:10.745Z,6.58
2019-01-27T00:57:10.749Z,6.55
2019-01-27T00:58:10.823Z,6.55
2019-01-27T00:59:10.840Z,6.60
2019-01-27T01:00:10.786Z,6.60
2019-01-27T01:01:11.362Z,6.55
2019-01-27T01:02:10.647Z,6.57
2019-01-27T01:03:10.649Z,6.55
2019-01-27T01:04:10.625Z,6.57
2019-01-27T01:05:10.653Z,6.63
2019-01-27T01:06:10.642Z,6.63
2019-01-27T01:07:10.595Z,6.55
2019-01-27T01:08:10.631Z,6.55
2019-01-27T01:09:10.618Z,6.58
2019-01-27T01:10:10.635Z,6.54
2019-01-27T01:11:10.613Z,6.54
2019-01-27T01:12:10.591Z,6.58
2019-01-27T01:13:10.530Z,6.63
2019-01-27T01:14:10.528Z,6.60
2019-01-27T01:15:10.507Z,6.61
2019-01-27T01:16:10.509Z,6.55
2019-01-27T01:17:10.510Z,6.61
2019-01-27T01:18:10.482Z,6.58
2019-01-27T01:19:10.526Z,6.50
2019-01-27T01:20:10.499Z,6.51
2019-01-27T01:21:10.541Z,6.50
2019-01-27T01:22:10.466Z,6.57
2019-01-27T01:23:10.433Z,6.53
2019-01-27T01:24:10.430Z,6.48
2019-01-27T01:25:10.635Z,6.50
2019-01-27T01:26:10.406Z,6.50
2019-01-27T01:27:10.446Z,6.48
2019-01-27T01:28:10.366Z,6.53
2019-01-27T01:29:10.375Z,6.54
2019-01-27T01:30:10.375Z,6.57
2019-01-27T01:31:10.338Z,6.68
2019-01-27T01:32:10.329Z,6.63
2019-01-27T01:33:10.349Z,6.58
2019-01-27T01:34:10.325Z,6.61
2019-01-27T01:35:10.296Z,6.58
2019-01-27T01:36:10.373Z,6.54
2019-01-27T01:37:10.371Z,6.54
2019-01-27T01:38:10.319Z,6.50
2019-01-27T01:39:10.428Z,6.54
2019-01-27T01:40:10.242Z,6.42
2019-01-27T01:41:10.242Z,6.48
2019-01-27T01:42:10.319Z,6.50
2019-01-27T01:43:10.219Z,6.43
2019-01-27T01:44:10.224Z,6.33
2019-01-27T01:45:10.202Z,6.30
2019-01-27T01:46:10.266Z,6.32
2019-01-27T01:47:10.236Z,6.17
2019-01-27T01:48:10.161Z,6.17
2019-01-27T01:49:10.180Z,6.28
2019-01-27T01:50:10.171Z,6.20
2019-01-27T01:51:10.228Z,6.20
2019-01-27T01:52:10.113Z,6.20
2019-01-27T01:53:10.249Z,6.27
2019-01-27T01:54:10.221Z,6.16
2019-01-27T01:55:10.089Z,6.13
2019-01-27T01:56:10.073Z,6.14
2019-01-27T01:57:10.105Z,6.08
2019-01-27T01:58:10.054Z,6.03
2019-01-27T01:59:10.075Z,6.06
2019-01-27T02:00:10.116Z,6.05
2019-01-27T02:01:10.031Z,6.05
2019-01-27T02:02:10.008Z,6.11
2019-01-27T02:03:10.040Z,6.03
2019-01-27T02:04:10.217Z,6.08
2019-01-27T02:05:10.066Z,6.06
2019-01-27T02:06:09.979Z,6.08
2019-01-27T02:07:09.988Z,6.03
2019-01-27T02:08:09.971Z,6.03
2019-01-27T02:09:09.932Z,6.03
2019-01-27T02:10:09.967Z,6.06
2019-01-27T02:11:10.025Z,6.05
2019-01-27T02:12:10.011Z,6.02
2019-01-27T02:13:09.927Z,6.06
2019-01-27T02:14:09.880Z,6.11
2019-01-27T02:15:09.899Z,6.08
2019-01-27T02:16:09.881Z,6.10
2019-01-27T02:17:09.848Z,6.05
2019-01-27T02:18:09.890Z,6.10
2019-01-27T02:19:09.826Z,6.05
2019-01-27T02:20:09.831Z,6.05
2019-01-27T02:21:09.857Z,6.06
2019-01-27T02:22:09.794Z,6.08
2019-01-27T02:23:09.847Z,6.05
2019-01-27T02:24:09.782Z,6.05
2019-01-27T02:25:09.786Z,6.08
2019-01-27T02:26:09.803Z,6.06
2019-01-27T02:27:09.808Z,6.02
2019-01-27T02:28:09.726Z,6.08
2019-01-27T02:29:09.793Z,6.08
2019-01-27T02:30:09.778Z,6.08
2019-01-27T02:31:09.725Z,6.03
2019-01-27T02:32:09.688Z,6.08
2019-01-27T02:33:09.675Z,6.05
2019-01-27T02:34:09.673Z,6.13
2019-01-27T02:35:09.809Z,6.05
2019-01-27T02:36:09.680Z,6.05
2019-01-27T02:37:09.633Z,6.05
2019-01-27T02:38:09.692Z,6.16
2019-01-27T02:39:09.619Z,6.19
2019-01-27T02:40:09.601Z,6.21
2019-01-27T02:41:09.747Z,6.24
2019-01-27T02:42:09.595Z,6.21
2019-01-27T02:43:09.585Z,6.21
2019-01-27T02:44:09.557Z,6.19
2019-01-27T02:45:09.623Z,6.20
2019-01-27T02:46:09.548Z,6.11
2019-01-27T02:47:09.552Z,6.17
2019-01-27T02:48:09.524Z,6.20
2019-01-27T02:49:09.618Z,6.08
2019-01-27T02:50:09.522Z,6.16
2019-01-27T02:51:09.485Z,6.16
2019-01-27T02:52:09.554Z,6.19
2019-01-27T02:53:09.516Z,6.11
2019-01-27T02:54:09.451Z,6.10
2019-01-27T02:55:09.438Z,6.08
2019-01-27T02:56:09.431Z,6.19
2019-01-27T02:57:09.578Z,6.21
2019-01-27T02:58:09.425Z,6.25
2019-01-27T02:59:09.439Z,6.21
2019-01-27T03:00:09.391Z,6.19
2019-01-27T03:01:09.384Z,6.16
2019-01-27T03:02:09.566Z,6.38
2019-01-27T03:03:09.394Z,6.25
2019-01-27T03:04:09.349Z,6.30
2019-01-27T03:05:09.535Z,6.28
2019-01-27T03:06:09.412Z,6.17
2019-01-27T03:07:09.310Z,6.28
2019-01-27T03:08:09.401Z,6.35
2019-01-27T03:09:09.321Z,6.39
2019-01-27T03:10:09.294Z,6.38
2019-01-27T03:11:09.518Z,6.27
2019-01-27T03:12:09.265Z,6.30
2019-01-27T03:13:09.370Z,6.33
2019-01-27T03:14:09.346Z,6.40
2019-01-27T03:15:09.225Z,6.36
2019-01-27T03:16:09.215Z,6.42
2019-01-27T03:17:09.335Z,6.43
2019-01-27T03:18:09.207Z,6.43
2019-01-27T03:19:09.209Z,6.39
2019-01-27T03:20:09.174Z,6.42
2019-01-27T03:21:09.259Z,6.43
2019-01-27T03:22:09.162Z,6.42
2019-01-27T03:23:09.149Z,6.46
2019-01-27T03:24:09.160Z,6.50
2019-01-27T03:25:09.133Z,6.43
2019-01-27T03:26:09.157Z,6.40
2019-01-27T03:27:09.118Z,6.38
2019-01-27T03:28:09.095Z,6.50
2019-01-27T03:29:09.108Z,6.46
2019-01-27T03:30:09.070Z,6.48
2019-01-27T03:31:09.234Z,6.50
2019-01-27T03:32:09.196Z,6.42
2019-01-27T03:33:09.039Z,6.45
2019-01-27T03:34:09.106Z,6.53
2019-01-27T03:35:09.030Z,6.48
2019-01-27T03:36:09.041Z,6.45
2019-01-27T03:37:09.031Z,6.51
2019-01-27T03:38:08.980Z,6.43
2019-01-27T03:39:08.981Z,6.39
2019-01-27T03:40:08.991Z,6.48
2019-01-27T03:41:09.033Z,6.48
2019-01-27T03:42:09.012Z,6.45
2019-01-27T03:43:08.931Z,6.53
2019-01-27T03:44:08.925Z,6.48
2019-01-27T03:45:09.070Z,6.45
2019-01-27T03:46:08.923Z,6.51
2019-01-27T03:47:08.929Z,6.46
2019-01-27T03:48:08.910Z,6.43
2019-01-27T03:49:08.883Z,6.54
2019-01-27T03:50:08.850Z,6.55
2019-01-27T03:51:08.871Z,6.65
2019-01-27T03:52:08.930Z,6.65
2019-01-27T03:53:08.832Z,6.61
2019-01-27T03:54:08.892Z,6.58
2019-01-27T03:55:08.797Z,6.61
2019-01-27T03:56:08.820Z,6.64
2019-01-27T03:57:08.786Z,6.64
2019-01-27T03:58:08.803Z,6.68
2019-01-27T03:59:08.753Z,6.65
2019-01-27T04:00:08.785Z,6.73
2019-01-27T04:01:08.765Z,6.75
2019-01-27T04:02:08.780Z,6.75
2019-01-27T04:03:08.711Z,6.78
2019-01-27T04:04:08.703Z,6.68
2019-01-27T04:05:08.726Z,6.75
2019-01-27T04:06:08.706Z,6.79
2019-01-27T04:07:08.685Z,6.76
2019-01-27T04:08:08.732Z,6.78
2019-01-27T04:09:08.796Z,6.71
2019-01-27T04:10:08.648Z,6.72
2019-01-27T04:11:08.763Z,6.69
2019-01-27T04:12:08.629Z,6.64
2019-01-27T04:13:08.613Z,6.64
2019-01-27T04:14:08.626Z,6.58
2019-01-27T04:15:08.583Z,6.51
2019-01-27T04:16:08.605Z,6.53
2019-01-27T04:17:08.601Z,6.46
2019-01-27T04:18:08.554Z,6.50
2019-01-27T04:19:08.552Z,6.45
2019-01-27T04:20:08.616Z,6.45
2019-01-27T04:21:08.536Z,6.48
2019-01-27T04:22:08.714Z,6.40
2019-01-27T04:23:08.507Z,6.42
2019-01-27T04:24:08.628Z,6.43
2019-01-27T04:25:08.498Z,6.36
2019-01-27T04:26:08.469Z,6.43
2019-01-27T04:27:08.489Z,6.39
2019-01-27T04:28:08.447Z,6.43
2019-01-27T04:29:08.500Z,6.48
2019-01-27T04:30:08.429Z,6.45
2019-01-27T04:31:08.458Z,6.39
2019-01-27T04:32:08.479Z,6.36
2019-01-27T04:33:08.396Z,6.36
2019-01-27T04:34:08.386Z,6.40
2019-01-27T04:35:08.538Z,6.38
2019-01-27T04:36:08.366Z,6.27
2019-01-27T04:37:08.351Z,6.38
2019-01-27T04:38:08.362Z,6.36
2019-01-27T04:39:08.459Z,6.32
2019-01-27T04:40:08.320Z,6.35
2019-01-27T04:41:08.315Z,6.32
2019-01-27T04:42:08.301Z,6.36
2019-01-27T04:43:08.328Z,6.30
2019-01-27T04:44:08.331Z,6.32
2019-01-27T04:45:08.289Z,6.32
2019-01-27T04:46:08.293Z,6.33
2019-01-27T04:47:08.247Z,6.32
2019-01-27T04:48:08.240Z,6.33
2019-01-27T04:49:08.355Z,6.36
2019-01-27T04:50:08.221Z,6.42
2019-01-27T04:51:08.285Z,6.43
2019-01-27T04:52:08.190Z,6.42
2019-01-27T04:53:08.233Z,6.51
2019-01-27T04:54:08.198Z,6.50
2019-01-27T04:55:08.179Z,6.40
2019-01-27T04:56:08.256Z,6.42
2019-01-27T04:57:08.138Z,6.46
2019-01-27T04:58:08.144Z,6.50
2019-01-27T04:59:08.138Z,6.48
2019-01-27T05:00:08.104Z,6.43
2019-01-27T05:01:08.113Z,6.46
2019-01-27T05:02:08.092Z,6.51
2019-01-27T05:03:08.074Z,6.48
2019-01-27T05:04:08.138Z,6.53
2019-01-27T05:05:08.078Z,6.36
2019-01-27T05:06:08.038Z,6.38
2019-01-27T05:07:08.114Z,6.39
2019-01-27T05:08:08.048Z,6.39
2019-01-27T05:09:08.353Z,6.33
2019-01-27T05:10:08.043Z,6.27
2019-01-27T05:11:08.001Z,6.28
2019-01-27T05:12:08.008Z,6.24
2019-01-27T05:13:08.035Z,6.14
2019-01-27T05:14:08.031Z,6.13
2019-01-27T05:15:07.959Z,6.24
2019-01-27T05:16:07.968Z,6.24
2019-01-27T05:17:07.921Z,6.20
2019-01-27T05:18:07.991Z,6.16
2019-01-27T05:19:07.929Z,6.06
2019-01-27T05:20:07.897Z,6.05
2019-01-27T05:21:07.908Z,6.02
2019-01-27T05:22:07.880Z,5.99
2019-01-27T05:23:07.968Z,5.95
2019-01-27T05:24:07.912Z,5.98
2019-01-27T05:25:08.042Z,6.01
2019-01-27T05:26:07.829Z,6.02
2019-01-27T05:27:07.857Z,6.05
2019-01-27T05:28:07.808Z,6.03
2019-01-27T05:29:07.886Z,6.08
2019-01-27T05:30:07.798Z,6.08
2019-01-27T05:31:07.788Z,6.06
2019-01-27T05:32:07.993Z,6.16
2019-01-27T05:33:07.762Z,6.06
2019-01-27T05:34:07.749Z,6.14
2019-01-27T05:35:07.761Z,6.14
2019-01-27T05:36:07.946Z,6.30
2019-01-27T05:37:07.725Z,6.21
2019-01-27T05:38:07.800Z,6.21
2019-01-27T05:39:07.707Z,6.20
2019-01-27T05:40:07.708Z,6.27
2019-01-27T05:41:07.669Z,6.24
2019-01-27T05:42:07.701Z,6.19
2019-01-27T05:43:07.646Z,6.19
2019-01-27T05:44:07.644Z,6.08
2019-01-27T05:45:07.721Z,6.08
2019-01-27T05:46:07.647Z,6.21
2019-01-27T05:47:07.692Z,6.13
2019-01-27T05:48:07.644Z,6.08
2019-01-27T05:49:07.707Z,6.17
2019-01-27T05:50:07.576Z,6.11
2019-01-27T05:51:07.634Z,6.11
2019-01-27T05:52:07.554Z,6.19
2019-01-27T05:53:07.537Z,6.14
2019-01-27T05:54:07.693Z,6.19
2019-01-27T05:55:07.578Z,6.25
2019-01-27T05:56:07.543Z,6.20
2019-01-27T05:57:07.508Z,6.20
2019-01-27T05:58:07.546Z,6.05
2019-01-27T05:59:07.539Z,6.08
2019-01-27T06:00:07.469Z,6.02
2019-01-27T06:01:07.604Z,5.99
2019-01-27T06:02:07.449Z,5.98
2019-01-27T06:03:07.438Z,5.98
2019-01-27T06:04:07.433Z,6.05
2019-01-27T06:05:07.509Z,6.06
2019-01-27T06:06:07.465Z,6.02
2019-01-27T06:07:07.388Z,6.02
2019-01-27T06:08:07.384Z,6.08
2019-01-27T06:09:07.425Z,6.13
2019-01-27T06:10:07.383Z,6.01
2019-01-27T06:11:07.466Z,6.06
2019-01-27T06:12:07.335Z,6.02
2019-01-27T06:13:07.327Z,6.05
2019-01-27T06:14:07.393Z,5.99
2019-01-27T06:15:07.303Z,5.99
2019-01-27T06:16:07.516Z,6.02
2019-01-27T06:17:07.503Z,5.95
2019-01-27T06:18:07.273Z,5.98
2019-01-27T06:19:07.396Z,6.01
2019-01-27T06:20:07.276Z,5.93
2019-01-27T06:21:07.283Z,5.87
2019-01-27T06:22:07.231Z,5.87
2019-01-27T06:23:07.216Z,5.84
2019-01-27T06:24:07.210Z,5.95
2019-01-27T06:25:07.200Z,5.85
2019-01-27T06:26:07.303Z,5.83
2019-01-27T06:27:07.234Z,5.83
2019-01-27T06:28:07.269Z,5.84
2019-01-27T06:29:07.236Z,5.75
2019-01-27T06:30:07.154Z,5.83
2019-01-27T06:31:07.166Z,5.77
2019-01-27T06:32:07.124Z,5.74
2019-01-27T06:33:07.118Z,5.67
2019-01-27T06:34:07.374Z,5.80
2019-01-27T06:35:07.092Z,5.70
2019-01-27T06:36:07.114Z,5.67
2019-01-27T06:37:07.108Z,5.60
2019-01-27T06:38:07.119Z,5.67
2019-01-27T06:39:07.212Z,5.77
2019-01-27T06:40:07.059Z,5.69
2019-01-27T06:41:07.099Z,5.69
2019-01-27T06:42:07.027Z,5.62
2019-01-27T06:43:07.033Z,5.66
2019-01-27T06:44:06.996Z,5.62
2019-01-27T06:45:07.037Z,5.73
2019-01-27T06:46:07.149Z,5.62
2019-01-27T06:47:07.047Z,5.65
2019-01-27T06:48:06.957Z,5.66
2019-01-27T06:49:06.965Z,5.62
2019-01-27T06:50:06.953Z,5.60
2019-01-27T06:51:06.942Z,5.65
2019-01-27T06:52:06.935Z,5.65
2019-01-27T06:53:06.926Z,5.62
2019-01-27T06:54:06.902Z,5.63
2019-01-27T06:55:06.877Z,5.74
2019-01-27T06:56:06.896Z,5.73
2019-01-27T06:57:06.976Z,5.75
2019-01-27T06:58:06.895Z,5.80
2019-01-27T06:59:06.837Z,5.80
2019-01-27T07:00:06.835Z,5.78
2019-01-27T07:01:06.850Z,5.92
2019-01-27T07:02:06.809Z,5.95
2019-01-27T07:03:06.813Z,5.95
2019-01-27T07:04:06.837Z,6.01
2019-01-27T07:05:06.776Z,6.01
2019-01-27T07:06:06.762Z,6.02
2019-01-27T07:07:06.904Z,5.99
2019-01-27T07:08:06.740Z,6.02
2019-01-27T07:09:06.778Z,5.99
2019-01-27T07:10:06.715Z,5.99
2019-01-27T07:11:06.748Z,5.96
2019-01-27T07:12:06.726Z,6.01
2019-01-27T07:13:06.717Z,6.03
2019-01-27T07:14:06.721Z,6.19
2019-01-27T07:15:06.745Z,6.19
2019-01-27T07:16:06.651Z,6.17
2019-01-27T07:17:06.667Z,6.24
2019-01-27T07:18:06.648Z,6.17
2019-01-27T07:19:06.628Z,6.27
2019-01-27T07:20:06.614Z,6.33
2019-01-27T07:21:06.608Z,6.27
2019-01-27T07:22:06.679Z,6.33
2019-01-27T07:23:06.664Z,6.38
2019-01-27T07:24:06.695Z,6.42
2019-01-27T07:25:06.707Z,6.39
2019-01-27T07:26:06.553Z,6.45
2019-01-27T07:27:06.578Z,6.53
2019-01-27T07:28:06.579Z,6.50
2019-01-27T07:29:06.514Z,6.39
2019-01-27T07:30:06.519Z,6.46
2019-01-27T07:31:06.506Z,6.42
2019-01-27T07:32:06.615Z,6.50
2019-01-27T07:33:06.561Z,6.53
2019-01-27T07:34:06.559Z,6.58
2019-01-27T07:35:06.449Z,6.54
2019-01-27T07:36:06.528Z,6.50
2019-01-27T07:37:06.445Z,6.43
2019-01-27T07:38:06.470Z,6.46
2019-01-27T07:39:06.509Z,6.43
2019-01-27T07:40:06.487Z,6.40
2019-01-27T07:41:06.387Z,6.42
2019-01-27T07:42:06.397Z,6.36
2019-01-27T07:43:06.391Z,6.39
2019-01-27T07:44:06.368Z,6.27
2019-01-27T07:45:06.361Z,6.24
2019-01-27T07:46:06.354Z,6.32
2019-01-27T07:47:06.519Z,6.36
2019-01-27T07:48:06.372Z,6.30
2019-01-27T07:49:06.317Z,6.30
2019-01-27T07:50:06.355Z,6.16
2019-01-27T07:51:06.312Z,6.24
2019-01-27T07:52:06.269Z,6.19
2019-01-27T07:53:06.260Z,6.27
2019-01-27T07:54:06.325Z,6.25
2019-01-27T07:55:06.243Z,6.21
2019-01-27T07:56:06.235Z,6.20
2019-01-27T07:57:06.272Z,6.19
2019-01-27T07:58:06.218Z,6.17
2019-01-27T07:59:06.280Z,6.25
2019-01-27T08:00:06.195Z,6.38
2019-01-27T08:01:06.223Z,6.30
2019-01-27T08:02:06.179Z,6.36
2019-01-27T08:03:11.917Z,6.36
2019-01-27T08:04:07.173Z,6.17
2019-01-27T08:05:06.141Z,6.19
2019-01-27T08:06:06.126Z,6.17
2019-01-27T08:07:06.108Z,6.17
2019-01-27T08:08:06.170Z,6.19
2019-01-27T08:09:06.109Z,6.25
2019-01-27T08:10:06.121Z,6.16
2019-01-27T08:11:06.074Z,6.08
2019-01-27T08:12:06.361Z,6.05
2019-01-27T08:13:06.053Z,6.16
2019-01-27T08:14:06.068Z,6.02
2019-01-27T08:15:06.306Z,6.02
2019-01-27T08:16:06.041Z,6.05
2019-01-27T08:17:06.008Z,6.03
2019-01-27T08:18:06.034Z,5.99
2019-01-27T08:19:05.999Z,6.02
2019-01-27T08:20:06.003Z,6.02
2019-01-27T08:21:05.961Z,6.02
2019-01-27T08:22:05.950Z,6.01
2019-01-27T08:23:06.017Z,6.02
2019-01-27T08:24:05.936Z,6.03
2019-01-27T08:25:05.920Z,6.03
2019-01-27T08:26:05.941Z,6.08
2019-01-27T08:27:05.968Z,6.08
2019-01-27T08:28:05.994Z,6.19
2019-01-27T08:29:05.877Z,6.24
2019-01-27T08:30:05.922Z,6.35
2019-01-27T08:31:05.874Z,6.54
2019-01-27T08:32:05.855Z,6.69
2019-01-27T08:33:05.869Z,6.76
2019-01-27T08:34:05.889Z,6.86
2019-01-27T08:35:05.868Z,6.90
2019-01-27T08:36:05.846Z,6.89
2019-01-27T08:37:05.836Z,6.87
2019-01-27T08:38:05.780Z,6.91
2019-01-27T08:39:05.776Z,6.90
2019-01-27T08:40:05.767Z,6.94
2019-01-27T08:41:05.856Z,6.96
2019-01-27T08:42:05.815Z,6.94
2019-01-27T08:43:05.739Z,6.99
2019-01-27T08:44:05.758Z,7.08
2019-01-27T08:45:05.750Z,7.18
2019-01-27T08:46:05.729Z,7.16
2019-01-27T08:47:05.722Z,7.26
2019-01-27T08:48:05.674Z,7.23
2019-01-27T08:49:05.707Z,7.23
2019-01-27T08:50:05.659Z,7.24
2019-01-27T08:51:05.708Z,7.29
2019-01-27T08:52:05.736Z,7.39
2019-01-27T08:53:05.644Z,7.39
2019-01-27T08:54:05.645Z,7.50
2019-01-27T08:55:05.696Z,7.48
2019-01-27T08:56:05.633Z,7.45
2019-01-27T08:57:05.578Z,7.48
2019-01-27T08:58:05.621Z,7.50
2019-01-27T08:59:05.564Z,7.47
2019-01-27T09:00:05.685Z,7.41
2019-01-27T09:01:05.890Z,7.52
2019-01-27T09:02:05.529Z,7.51
2019-01-27T09:03:05.535Z,7.48
2019-01-27T09:04:05.549Z,7.50
2019-01-27T09:05:05.496Z,7.51
2019-01-27T09:06:05.554Z,7.57
2019-01-27T09:07:05.486Z,7.70
2019-01-27T09:08:05.540Z,7.77
2019-01-27T09:09:05.451Z,7.69
2019-01-27T09:10:05.445Z,7.67
2019-01-27T09:11:05.426Z,7.67
2019-01-27T09:12:05.451Z,7.79
2019-01-27T09:13:11.149Z,7.77
2019-01-27T09:14:06.427Z,7.85
2019-01-27T09:15:05.454Z,7.92
2019-01-27T09:16:05.421Z,7.95
2019-01-27T09:17:05.376Z,7.94
2019-01-27T09:18:05.393Z,7.91
2019-01-27T09:19:05.395Z,7.92
2019-01-27T09:20:05.338Z,7.92
2019-01-27T09:21:05.390Z,7.96
2019-01-27T09:22:05.389Z,8.02
2019-01-27T09:23:05.428Z,7.99
2019-01-27T09:24:05.374Z,8.07
2019-01-27T09:25:05.326Z,8.06
2019-01-27T09:26:05.276Z,8.07
2019-01-27T09:27:05.348Z,8.04
2019-01-27T09:28:05.291Z,8.06
2019-01-27T09:29:05.394Z,8.06
2019-01-27T09:30:05.314Z,7.96
2019-01-27T09:31:05.405Z,8.13
2019-01-27T09:32:05.210Z,8.12
2019-01-27T09:33:05.192Z,8.14
2019-01-27T09:34:05.250Z,8.22
2019-01-27T09:35:05.171Z,8.22
2019-01-27T09:36:05.266Z,8.18
2019-01-27T09:37:05.323Z,8.24
2019-01-27T09:38:05.156Z,8.24
2019-01-27T09:39:05.141Z,8.12
2019-01-27T09:40:05.140Z,8.17
2019-01-27T09:41:05.157Z,8.14
2019-01-27T09:42:05.134Z,8.20
2019-01-27T09:43:05.102Z,8.13
2019-01-27T09:44:05.081Z,8.13
2019-01-27T09:45:05.121Z,8.07
2019-01-27T09:46:10.131Z,8.07
2019-01-27T09:47:06.210Z,8.06
2019-01-27T09:48:05.090Z,8.09
2019-01-27T09:49:05.024Z,8.14
2019-01-27T09:50:05.083Z,8.14
2019-01-27T09:51:05.046Z,8.25
2019-01-27T09:52:05.020Z,8.24
2019-01-27T09:53:04.980Z,8.27
2019-01-27T09:54:05.057Z,8.31
2019-01-27T09:55:04.970Z,8.39
2019-01-27T09:56:04.982Z,8.39
2019-01-27T09:57:04.981Z,8.39
2019-01-27T09:58:04.955Z,8.54
2019-01-27T09:59:04.961Z,8.57
2019-01-27T10:00:04.907Z,8.58
2019-01-27T10:01:04.894Z,8.61
2019-01-27T10:02:05.025Z,8.64
2019-01-27T10:03:04.902Z,8.58
2019-01-27T10:04:04.886Z,8.55
2019-01-27T10:05:04.881Z,8.54
2019-01-27T10:06:04.905Z,8.54
2019-01-27T10:07:04.885Z,8.52
2019-01-27T10:08:04.855Z,8.60
2019-01-27T10:09:04.819Z,8.57
2019-01-27T10:10:05.009Z,8.57
2019-01-27T10:11:04.931Z,8.63
2019-01-27T10:12:04.778Z,8.70
2019-01-27T10:13:04.866Z,8.68
2019-01-27T10:14:04.773Z,8.68
2019-01-27T10:15:04.749Z,8.61
2019-01-27T10:16:04.735Z,8.54
2019-01-27T10:17:04.792Z,8.57
2019-01-27T10:18:04.752Z,8.61
2019-01-27T10:19:04.703Z,8.65
2019-01-27T10:20:04.705Z,8.60
2019-01-27T10:21:04.703Z,8.67
2019-01-27T10:22:04.703Z,8.68
2019-01-27T10:23:04.684Z,8.75
2019-01-27T10:24:04.649Z,8.68
2019-01-27T10:25:04.741Z,8.70
2019-01-27T10:26:04.672Z,8.65
2019-01-27T10:27:04.671Z,8.67
2019-01-27T10:28:04.649Z,8.67
2019-01-27T10:29:04.730Z,8.60
2019-01-27T10:30:04.581Z,8.57
2019-01-27T10:31:04.612Z,8.58
2019-01-27T10:32:04.561Z,8.61
2019-01-27T10:33:04.574Z,8.55
2019-01-27T10:34:04.682Z,8.65
2019-01-27T10:35:04.566Z,8.67
2019-01-27T10:36:04.613Z,8.63
2019-01-27T10:37:11.844Z,8.57
2019-01-27T10:38:05.510Z,8.68
2019-01-27T10:39:04.599Z,8.64
2019-01-27T10:40:09.119Z,8.67
2019-01-27T10:41:05.542Z,8.68
2019-01-27T10:42:04.450Z,8.58
2019-01-27T10:43:04.467Z,8.75
2019-01-27T10:44:04.487Z,8.63
2019-01-27T10:45:04.445Z,8.64
2019-01-27T10:46:04.430Z,8.61
2019-01-27T10:47:04.532Z,8.64
2019-01-27T10:48:04.414Z,8.67
2019-01-27T10:49:04.440Z,8.63
2019-01-27T10:50:04.414Z,8.64
2019-01-27T10:51:04.371Z,8.61
2019-01-27T10:52:05.509Z,8.55
2019-01-27T10:53:04.331Z,8.61
2019-01-27T10:54:04.341Z,8.57
2019-01-27T10:55:04.351Z,8.67
2019-01-27T10:56:04.482Z,8.64
2019-01-27T10:57:04.470Z,8.64
2019-01-27T10:58:04.432Z,8.73
2019-01-27T10:59:04.320Z,8.63
2019-01-27T11:00:04.638Z,8.70
2019-01-27T11:01:04.272Z,8.80
2019-01-27T11:02:04.234Z,8.82
2019-01-27T11:03:04.249Z,8.85
2019-01-27T11:04:04.392Z,8.79
2019-01-27T11:05:04.309Z,8.79
2019-01-27T11:06:04.262Z,8.85
2019-01-27T11:07:04.207Z,8.71
2019-01-27T11:08:04.274Z,8.68
2019-01-27T11:09:04.244Z,8.73
2019-01-27T11:10:04.151Z,8.75
2019-01-27T11:11:04.145Z,8.75
2019-01-27T11:12:04.176Z,8.75
2019-01-27T11:13:04.165Z,8.64
2019-01-27T11:14:04.107Z,8.68
2019-01-27T11:15:04.211Z,8.75
2019-01-27T11:16:04.106Z,8.70
2019-01-27T11:17:04.118Z,8.63
2019-01-27T11:18:04.104Z,8.61
2019-01-27T11:19:04.053Z,8.55
2019-01-27T11:20:04.053Z,8.63
2019-01-27T11:21:04.033Z,8.67
2019-01-27T11:22:04.065Z,8.65
2019-01-27T11:23:04.078Z,8.63
2019-01-27T11:24:04.479Z,8.55
2019-01-27T11:25:04.032Z,8.65
2019-01-27T11:26:04.035Z,8.61
2019-01-27T11:27:04.065Z,8.60
2019-01-27T11:28:04.002Z,8.55
2019-01-27T11:29:03.996Z,8.50
2019-01-27T11:30:03.936Z,8.47
2019-01-27T11:31:03.934Z,8.45
2019-01-27T11:32:03.991Z,8.43
2019-01-27T11:33:03.947Z,8.45
2019-01-27T11:34:03.908Z,8.49
2019-01-27T11:35:03.899Z,8.42
2019-01-27T11:36:03.882Z,8.43
2019-01-27T11:37:03.861Z,8.40
2019-01-27T11:38:04.042Z,8.49
2019-01-27T11:39:03.842Z,8.42
2019-01-27T11:40:03.836Z,8.45
2019-01-27T11:41:03.821Z,8.40
2019-01-27T11:42:03.818Z,8.42
2019-01-27T11:43:03.910Z,8.39
2019-01-27T11:44:03.807Z,8.45
2019-01-27T11:45:03.789Z,8.43
2019-01-27T11:46:03.779Z,8.43
2019-01-27T11:47:03.788Z,8.47
2019-01-27T11:48:03.795Z,8.54
2019-01-27T11:49:03.815Z,8.58
2019-01-27T11:50:03.730Z,8.58
2019-01-27T11:51:03.707Z,8.64
2019-01-27T11:52:03.752Z,8.60
2019-01-27T11:53:03.690Z,8.57
2019-01-27T11:54:03.729Z,8.52
2019-01-27T11:55:03.828Z,8.55
2019-01-27T11:56:03.736Z,8.64
2019-01-27T11:57:03.664Z,8.61
2019-01-27T11:58:03.637Z,8.65
2019-01-27T11:59:03.651Z,8.70
2019-01-27T12:00:03.612Z,8.67
2019-01-27T12:01:03.634Z,8.68
2019-01-27T12:02:03.599Z,8.79
2019-01-27T12:03:03.596Z,8.79
2019-01-27T12:04:03.705Z,8.86
2019-01-27T12:05:03.605Z,8.88
2019-01-27T12:06:03.598Z,9.00
2019-01-27T12:07:03.588Z,8.98
2019-01-27T12:08:03.594Z,8.98
2019-01-27T12:09:03.520Z,8.98
2019-01-27T12:10:03.588Z,9.10
2019-01-27T12:11:03.525Z,9.19
2019-01-27T12:12:03.523Z,9.13
2019-01-27T12:13:03.587Z,9.19
2019-01-27T12:14:03.527Z,9.15
2019-01-27T12:15:03.586Z,9.12
2019-01-27T12:16:03.445Z,9.08
2019-01-27T12:17:03.439Z,9.10
2019-01-27T12:18:03.468Z,9.08
2019-01-27T12:19:03.465Z,9.03
2019-01-27T12:20:03.462Z,8.97
2019-01-27T12:21:03.420Z,9.00
2019-01-27T12:22:03.412Z,8.94
2019-01-27T12:23:03.424Z,8.86
2019-01-27T12:24:03.398Z,8.98
2019-01-27T12:25:03.360Z,8.89
2019-01-27T12:26:03.433Z,8.97
2019-01-27T12:27:03.331Z,9.00
2019-01-27T12:28:03.338Z,9.10
2019-01-27T12:29:03.395Z,9.12
2019-01-27T12:30:03.349Z,9.15
2019-01-27T12:31:03.289Z,9.19
2019-01-27T12:32:03.272Z,9.13
2019-01-27T12:33:03.299Z,9.26
2019-01-27T12:34:03.274Z,9.31
2019-01-27T12:35:03.241Z,9.27
2019-01-27T12:36:03.302Z,9.30
2019-01-27T12:37:03.218Z,9.26
2019-01-27T12:38:03.210Z,9.27
2019-01-27T12:39:03.207Z,9.15
2019-01-27T12:40:03.316Z,9.13
2019-01-27T12:41:03.358Z,9.20
2019-01-27T12:42:03.164Z,9.24
2019-01-27T12:43:03.154Z,9.31
2019-01-27T12:44:03.142Z,9.23
2019-01-27T12:45:03.226Z,9.27
2019-01-27T12:46:03.170Z,9.26
2019-01-27T12:47:03.172Z,9.32
2019-01-27T12:48:03.115Z,9.44
2019-01-27T12:49:03.093Z,9.42
2019-01-27T12:50:03.092Z,9.48
2019-01-27T12:51:03.087Z,9.50
2019-01-27T12:52:03.093Z,9.63
2019-01-27T12:53:03.089Z,9.78
2019-01-27T12:54:03.065Z,9.73
2019-01-27T12:55:03.090Z,9.88
2019-01-27T12:56:03.076Z,9.81
2019-01-27T12:57:03.102Z,9.77
2019-01-27T12:58:03.003Z,9.74
2019-01-27T12:59:03.006Z,9.67
2019-01-27T13:00:03.027Z,9.62
2019-01-27T13:01:03.001Z,9.58
2019-01-27T13:02:02.979Z,9.52
2019-01-27T13:03:02.987Z,9.55
2019-01-27T13:04:02.947Z,9.49
2019-01-27T13:05:02.937Z,9.40
2019-01-27T13:06:02.998Z,9.31
2019-01-27T13:07:02.916Z,9.37
2019-01-27T13:08:02.945Z,9.34
2019-01-27T13:09:02.905Z,9.23
2019-01-27T13:10:02.947Z,9.32
2019-01-27T13:11:05.691Z,9.31
2019-01-27T13:12:02.845Z,9.31
2019-01-27T13:13:02.929Z,9.27
2019-01-27T13:14:02.923Z,9.27
2019-01-27T13:15:02.883Z,9.27
2019-01-27T13:16:02.837Z,9.22
2019-01-27T13:17:07.429Z,9.23
2019-01-27T13:18:02.816Z,9.19